sensor_id;sensor_type;location;lat;lon;timestamp;P1;durP1;ratioP1;P2;durP2;ratioP2
20621;SDS011;10470;42.670;23.354;2022-10-16T00:00:18;19.93;;;11.03;;
20621;SDS011;10470;42.670;23.354;2022-10-16T00:02:43;15.17;;;10.20;;
20621;SDS011;10470;42.670;23.354;2022-10-16T00:05:09;16.33;;;10.90;;
20621;SDS011;10470;42.670;23.354;2022-10-16T00:07:35;22.63;;;11.83;;
20621;SDS011;10470;42.670;23.354;2022-10-16T00:10:00;17.67;;;11.57;;
20621;SDS011;10470;42.670;23.354;2022-10-16T00:12:25;15.43;;;10.63;;
20621;SDS011;10470;42.670;23.354;2022-10-16T00:14:51;17.83;;;10.93;;
20621;SDS011;10470;42.670;23.354;2022-10-16T00:17:17;15.47;;;9.93;;
20621;SDS011;10470;42.670;23.354;2022-10-16T00:19:42;14.40;;;9.93;;
20621;SDS011;10470;42.670;23.354;2022-10-16T00:22:08;15.50;;;9.80;;
20621;SDS011;10470;42.670;23.354;2022-10-16T00:24:33;15.97;;;10.67;;
20621;SDS011;10470;42.670;23.354;2022-10-16T00:26:59;16.80;;;10.53;;
20621;SDS011;10470;42.670;23.354;2022-10-16T00:29:24;18.10;;;12.00;;
20621;SDS011;10470;42.670;23.354;2022-10-16T00:31:50;17.97;;;10.93;;
20621;SDS011;10470;42.670;23.354;2022-10-16T00:34:15;17.67;;;12.13;;
20621;SDS011;10470;42.670;23.354;2022-10-16T00:36:40;19.23;;;11.77;;
20621;SDS011;10470;42.670;23.354;2022-10-16T00:39:06;17.53;;;11.53;;
20621;SDS011;10470;42.670;23.354;2022-10-16T00:41:32;19.20;;;11.63;;
20621;SDS011;10470;42.670;23.354;2022-10-16T00:43:59;17.63;;;11.83;;
20621;SDS011;10470;42.670;23.354;2022-10-16T00:46:39;14.93;;;10.37;;
20621;SDS011;10470;42.670;23.354;2022-10-16T00:51:36;18.27;;;11.00;;
20621;SDS011;10470;42.670;23.354;2022-10-16T00:54:09;15.97;;;10.70;;
20621;SDS011;10470;42.670;23.354;2022-10-16T00:56:42;18.00;;;11.17;;
20621;SDS011;10470;42.670;23.354;2022-10-16T00:59:14;15.33;;;10.63;;
20621;SDS011;10470;42.670;23.354;2022-10-16T01:01:44;16.47;;;11.10;;
20621;SDS011;10470;42.670;23.354;2022-10-16T01:04:10;14.77;;;9.87;;
20621;SDS011;10470;42.670;23.354;2022-10-16T01:09:17;14.60;;;10.27;;
20621;SDS011;10470;42.670;23.354;2022-10-16T01:14:34;14.33;;;10.00;;
20621;SDS011;10470;42.670;23.354;2022-10-16T01:17:12;14.97;;;9.83;;
20621;SDS011;10470;42.670;23.354;2022-10-16T01:19:54;16.97;;;10.53;;
20621;SDS011;10470;42.670;23.354;2022-10-16T01:22:48;17.73;;;10.20;;
20621;SDS011;10470;42.670;23.354;2022-10-16T01:28:17;17.00;;;11.00;;
20621;SDS011;10470;42.670;23.354;2022-10-16T01:30:46;15.27;;;10.50;;
20621;SDS011;10470;42.670;23.354;2022-10-16T01:33:18;14.60;;;9.33;;
20621;SDS011;10470;42.670;23.354;2022-10-16T01:35:52;15.03;;;10.00;;
20621;SDS011;10470;42.670;23.354;2022-10-16T01:38:29;15.77;;;9.97;;
20621;SDS011;10470;42.670;23.354;2022-10-16T01:41:03;18.13;;;10.63;;
20621;SDS011;10470;42.670;23.354;2022-10-16T01:43:53;16.93;;;10.03;;
20621;SDS011;10470;42.670;23.354;2022-10-16T01:46:29;17.37;;;10.27;;
20621;SDS011;10470;42.670;23.354;2022-10-16T01:48:56;18.03;;;9.70;;
20621;SDS011;10470;42.670;23.354;2022-10-16T01:51:24;13.67;;;9.00;;
20621;SDS011;10470;42.670;23.354;2022-10-16T01:53:55;14.50;;;9.43;;
20621;SDS011;10470;42.670;23.354;2022-10-16T01:56:24;15.83;;;9.50;;
20621;SDS011;10470;42.670;23.354;2022-10-16T01:58:55;13.83;;;9.93;;
20621;SDS011;10470;42.670;23.354;2022-10-16T02:01:26;16.23;;;9.97;;
20621;SDS011;10470;42.670;23.354;2022-10-16T02:03:56;15.13;;;9.87;;
20621;SDS011;10470;42.670;23.354;2022-10-16T02:06:26;18.50;;;10.80;;
20621;SDS011;10470;42.670;23.354;2022-10-16T02:08:53;18.87;;;11.53;;
20621;SDS011;10470;42.670;23.354;2022-10-16T02:11:19;15.83;;;10.60;;
20621;SDS011;10470;42.670;23.354;2022-10-16T02:16:43;18.37;;;10.43;;
20621;SDS011;10470;42.670;23.354;2022-10-16T02:19:11;17.33;;;10.63;;
20621;SDS011;10470;42.670;23.354;2022-10-16T02:24:22;18.17;;;10.43;;
20621;SDS011;10470;42.670;23.354;2022-10-16T02:27:01;16.00;;;10.87;;
20621;SDS011;10470;42.670;23.354;2022-10-16T02:29:33;17.63;;;10.43;;
20621;SDS011;10470;42.670;23.354;2022-10-16T02:32:04;14.50;;;10.27;;
20621;SDS011;10470;42.670;23.354;2022-10-16T02:34:33;13.50;;;9.60;;
20621;SDS011;10470;42.670;23.354;2022-10-16T02:37:00;13.50;;;8.37;;
20621;SDS011;10470;42.670;23.354;2022-10-16T02:39:28;13.60;;;9.27;;
20621;SDS011;10470;42.670;23.354;2022-10-16T02:41:54;12.47;;;8.40;;
20621;SDS011;10470;42.670;23.354;2022-10-16T02:44:20;14.40;;;8.57;;
20621;SDS011;10470;42.670;23.354;2022-10-16T02:46:45;13.27;;;9.00;;
20621;SDS011;10470;42.670;23.354;2022-10-16T02:49:11;14.07;;;8.90;;
20621;SDS011;10470;42.670;23.354;2022-10-16T02:51:36;12.53;;;8.50;;
20621;SDS011;10470;42.670;23.354;2022-10-16T02:54:02;14.67;;;8.63;;
20621;SDS011;10470;42.670;23.354;2022-10-16T02:56:28;15.40;;;9.43;;
20621;SDS011;10470;42.670;23.354;2022-10-16T02:58:55;19.40;;;9.40;;
20621;SDS011;10470;42.670;23.354;2022-10-16T03:01:21;15.43;;;9.33;;
20621;SDS011;10470;42.670;23.354;2022-10-16T03:03:46;12.93;;;9.40;;
20621;SDS011;10470;42.670;23.354;2022-10-16T03:06:12;14.37;;;10.13;;
20621;SDS011;10470;42.670;23.354;2022-10-16T03:08:37;14.70;;;9.70;;
20621;SDS011;10470;42.670;23.354;2022-10-16T03:11:03;15.40;;;10.07;;
20621;SDS011;10470;42.670;23.354;2022-10-16T03:13:28;14.40;;;9.33;;
20621;SDS011;10470;42.670;23.354;2022-10-16T03:15:54;13.87;;;8.87;;
20621;SDS011;10470;42.670;23.354;2022-10-16T03:18:19;14.70;;;9.13;;
20621;SDS011;10470;42.670;23.354;2022-10-16T03:20:45;11.70;;;8.20;;
20621;SDS011;10470;42.670;23.354;2022-10-16T03:23:10;12.53;;;8.80;;
20621;SDS011;10470;42.670;23.354;2022-10-16T03:25:36;9.43;;;7.33;;
20621;SDS011;10470;42.670;23.354;2022-10-16T03:28:01;14.67;;;7.43;;
20621;SDS011;10470;42.670;23.354;2022-10-16T03:30:28;11.20;;;7.03;;
20621;SDS011;10470;42.670;23.354;2022-10-16T03:32:53;11.57;;;7.57;;
20621;SDS011;10470;42.670;23.354;2022-10-16T03:35:19;12.97;;;7.90;;
20621;SDS011;10470;42.670;23.354;2022-10-16T03:37:49;13.07;;;8.77;;
20621;SDS011;10470;42.670;23.354;2022-10-16T03:40:15;13.93;;;8.77;;
20621;SDS011;10470;42.670;23.354;2022-10-16T03:42:44;14.97;;;9.00;;
20621;SDS011;10470;42.670;23.354;2022-10-16T03:45:10;16.33;;;10.83;;
20621;SDS011;10470;42.670;23.354;2022-10-16T03:47:36;13.43;;;9.33;;
20621;SDS011;10470;42.670;23.354;2022-10-16T03:50:02;16.47;;;10.27;;
20621;SDS011;10470;42.670;23.354;2022-10-16T03:52:28;17.93;;;9.90;;
20621;SDS011;10470;42.670;23.354;2022-10-16T03:54:54;15.03;;;9.13;;
20621;SDS011;10470;42.670;23.354;2022-10-16T03:57:20;11.73;;;8.83;;
20621;SDS011;10470;42.670;23.354;2022-10-16T03:59:46;15.30;;;9.63;;
20621;SDS011;10470;42.670;23.354;2022-10-16T04:02:12;14.53;;;9.47;;
20621;SDS011;10470;42.670;23.354;2022-10-16T04:04:38;18.27;;;9.10;;
20621;SDS011;10470;42.670;23.354;2022-10-16T04:07:03;14.63;;;9.30;;
20621;SDS011;10470;42.670;23.354;2022-10-16T04:09:29;12.60;;;8.53;;
20621;SDS011;10470;42.670;23.354;2022-10-16T04:11:54;15.20;;;9.50;;
20621;SDS011;10470;42.670;23.354;2022-10-16T04:14:19;15.13;;;9.43;;
20621;SDS011;10470;42.670;23.354;2022-10-16T04:16:45;15.27;;;9.43;;
20621;SDS011;10470;42.670;23.354;2022-10-16T04:19:10;14.17;;;10.07;;
20621;SDS011;10470;42.670;23.354;2022-10-16T04:21:36;15.83;;;9.73;;
20621;SDS011;10470;42.670;23.354;2022-10-16T04:24:02;17.70;;;9.60;;
20621;SDS011;10470;42.670;23.354;2022-10-16T04:26:28;17.03;;;9.43;;
20621;SDS011;10470;42.670;23.354;2022-10-16T04:28:54;15.70;;;9.30;;
20621;SDS011;10470;42.670;23.354;2022-10-16T04:31:20;19.73;;;9.60;;
20621;SDS011;10470;42.670;23.354;2022-10-16T04:33:46;25.83;;;13.87;;
20621;SDS011;10470;42.670;23.354;2022-10-16T04:36:12;28.77;;;18.10;;
20621;SDS011;10470;42.670;23.354;2022-10-16T04:38:37;32.00;;;23.20;;
20621;SDS011;10470;42.670;23.354;2022-10-16T04:41:04;29.77;;;19.60;;
20621;SDS011;10470;42.670;23.354;2022-10-16T04:43:30;17.73;;;11.10;;
20621;SDS011;10470;42.670;23.354;2022-10-16T04:45:55;16.87;;;9.23;;
20621;SDS011;10470;42.670;23.354;2022-10-16T04:48:21;17.37;;;9.37;;
20621;SDS011;10470;42.670;23.354;2022-10-16T04:50:47;15.63;;;9.17;;
20621;SDS011;10470;42.670;23.354;2022-10-16T04:53:13;12.60;;;8.77;;
20621;SDS011;10470;42.670;23.354;2022-10-16T04:55:38;16.33;;;8.50;;
20621;SDS011;10470;42.670;23.354;2022-10-16T04:58:07;15.00;;;9.87;;
20621;SDS011;10470;42.670;23.354;2022-10-16T05:00:33;16.53;;;9.50;;
20621;SDS011;10470;42.670;23.354;2022-10-16T05:02:58;16.23;;;9.80;;
20621;SDS011;10470;42.670;23.354;2022-10-16T05:05:26;16.70;;;10.33;;
20621;SDS011;10470;42.670;23.354;2022-10-16T05:07:52;26.53;;;12.37;;
20621;SDS011;10470;42.670;23.354;2022-10-16T05:10:18;16.77;;;10.60;;
20621;SDS011;10470;42.670;23.354;2022-10-16T05:12:44;24.20;;;12.03;;
20621;SDS011;10470;42.670;23.354;2022-10-16T05:15:10;17.57;;;10.70;;
20621;SDS011;10470;42.670;23.354;2022-10-16T05:17:36;25.97;;;13.23;;
20621;SDS011;10470;42.670;23.354;2022-10-16T05:20:01;28.80;;;12.97;;
20621;SDS011;10470;42.670;23.354;2022-10-16T05:22:28;17.90;;;10.80;;
20621;SDS011;10470;42.670;23.354;2022-10-16T05:24:53;16.17;;;10.30;;
20621;SDS011;10470;42.670;23.354;2022-10-16T05:27:19;18.83;;;10.17;;
20621;SDS011;10470;42.670;23.354;2022-10-16T05:29:45;20.13;;;9.60;;
20621;SDS011;10470;42.670;23.354;2022-10-16T05:32:14;27.20;;;10.60;;
20621;SDS011;10470;42.670;23.354;2022-10-16T05:34:40;20.37;;;10.17;;
20621;SDS011;10470;42.670;23.354;2022-10-16T05:37:06;15.83;;;9.17;;
20621;SDS011;10470;42.670;23.354;2022-10-16T05:39:31;17.97;;;9.57;;
20621;SDS011;10470;42.670;23.354;2022-10-16T05:41:57;15.93;;;10.30;;
20621;SDS011;10470;42.670;23.354;2022-10-16T05:44:22;15.10;;;10.10;;
20621;SDS011;10470;42.670;23.354;2022-10-16T05:46:50;15.13;;;9.80;;
20621;SDS011;10470;42.670;23.354;2022-10-16T05:49:16;17.33;;;10.90;;
20621;SDS011;10470;42.670;23.354;2022-10-16T05:51:41;20.20;;;11.07;;
20621;SDS011;10470;42.670;23.354;2022-10-16T05:54:08;18.17;;;11.13;;
20621;SDS011;10470;42.670;23.354;2022-10-16T05:56:34;17.03;;;11.03;;
20621;SDS011;10470;42.670;23.354;2022-10-16T05:58:59;18.43;;;11.20;;
20621;SDS011;10470;42.670;23.354;2022-10-16T06:01:25;18.77;;;11.10;;
20621;SDS011;10470;42.670;23.354;2022-10-16T06:03:51;16.90;;;10.57;;
20621;SDS011;10470;42.670;23.354;2022-10-16T06:06:18;16.47;;;10.73;;
20621;SDS011;10470;42.670;23.354;2022-10-16T06:08:46;18.83;;;9.93;;
20621;SDS011;10470;42.670;23.354;2022-10-16T06:11:17;19.70;;;10.20;;
20621;SDS011;10470;42.670;23.354;2022-10-16T06:13:44;12.67;;;9.03;;
20621;SDS011;10470;42.670;23.354;2022-10-16T06:16:11;14.00;;;8.70;;
20621;SDS011;10470;42.670;23.354;2022-10-16T06:18:37;16.43;;;9.33;;
20621;SDS011;10470;42.670;23.354;2022-10-16T06:21:10;14.27;;;9.37;;
20621;SDS011;10470;42.670;23.354;2022-10-16T06:23:38;14.77;;;9.53;;
20621;SDS011;10470;42.670;23.354;2022-10-16T06:26:05;11.80;;;8.77;;
20621;SDS011;10470;42.670;23.354;2022-10-16T06:28:34;13.60;;;8.60;;
20621;SDS011;10470;42.670;23.354;2022-10-16T06:31:00;18.10;;;9.20;;
20621;SDS011;10470;42.670;23.354;2022-10-16T06:33:26;13.10;;;8.20;;
20621;SDS011;10470;42.670;23.354;2022-10-16T06:35:52;11.93;;;8.37;;
20621;SDS011;10470;42.670;23.354;2022-10-16T06:38:17;11.23;;;8.30;;
20621;SDS011;10470;42.670;23.354;2022-10-16T06:40:43;13.80;;;8.90;;
20621;SDS011;10470;42.670;23.354;2022-10-16T06:43:08;14.10;;;9.17;;
20621;SDS011;10470;42.670;23.354;2022-10-16T06:45:34;14.07;;;10.10;;
20621;SDS011;10470;42.670;23.354;2022-10-16T06:47:59;16.40;;;9.33;;
20621;SDS011;10470;42.670;23.354;2022-10-16T06:50:25;13.73;;;9.10;;
20621;SDS011;10470;42.670;23.354;2022-10-16T06:52:50;15.33;;;9.10;;
20621;SDS011;10470;42.670;23.354;2022-10-16T06:55:16;13.40;;;9.50;;
20621;SDS011;10470;42.670;23.354;2022-10-16T06:57:42;14.63;;;8.77;;
20621;SDS011;10470;42.670;23.354;2022-10-16T07:00:09;16.93;;;9.63;;
20621;SDS011;10470;42.670;23.354;2022-10-16T07:02:34;15.73;;;9.73;;
20621;SDS011;10470;42.670;23.354;2022-10-16T07:05:00;14.63;;;9.33;;
20621;SDS011;10470;42.670;23.354;2022-10-16T07:07:25;15.60;;;10.20;;
20621;SDS011;10470;42.670;23.354;2022-10-16T07:09:51;13.07;;;9.07;;
20621;SDS011;10470;42.670;23.354;2022-10-16T07:12:17;15.13;;;9.60;;
20621;SDS011;10470;42.670;23.354;2022-10-16T07:14:43;15.47;;;10.37;;
20621;SDS011;10470;42.670;23.354;2022-10-16T07:17:08;14.97;;;9.53;;
20621;SDS011;10470;42.670;23.354;2022-10-16T07:19:34;14.33;;;9.70;;
20621;SDS011;10470;42.670;23.354;2022-10-16T07:21:59;15.57;;;9.60;;
20621;SDS011;10470;42.670;23.354;2022-10-16T07:24:25;14.63;;;9.83;;
20621;SDS011;10470;42.670;23.354;2022-10-16T07:26:51;14.03;;;9.50;;
20621;SDS011;10470;42.670;23.354;2022-10-16T07:29:17;14.10;;;9.87;;
20621;SDS011;10470;42.670;23.354;2022-10-16T07:31:45;14.97;;;9.03;;
20621;SDS011;10470;42.670;23.354;2022-10-16T07:34:11;15.17;;;10.30;;
20621;SDS011;10470;42.670;23.354;2022-10-16T07:36:38;13.83;;;9.50;;
20621;SDS011;10470;42.670;23.354;2022-10-16T07:39:04;15.93;;;9.37;;
20621;SDS011;10470;42.670;23.354;2022-10-16T07:41:30;13.53;;;9.13;;
20621;SDS011;10470;42.670;23.354;2022-10-16T07:43:57;13.33;;;8.70;;
20621;SDS011;10470;42.670;23.354;2022-10-16T07:46:25;12.50;;;8.67;;
20621;SDS011;10470;42.670;23.354;2022-10-16T07:48:51;11.47;;;8.30;;
20621;SDS011;10470;42.670;23.354;2022-10-16T07:51:18;11.27;;;8.33;;
20621;SDS011;10470;42.670;23.354;2022-10-16T07:53:45;14.93;;;11.27;;
20621;SDS011;10470;42.670;23.354;2022-10-16T07:56:12;9.10;;;7.60;;
20621;SDS011;10470;42.670;23.354;2022-10-16T07:58:39;9.77;;;7.67;;
20621;SDS011;10470;42.670;23.354;2022-10-16T08:01:05;11.50;;;8.20;;
20621;SDS011;10470;42.670;23.354;2022-10-16T08:03:33;11.47;;;7.30;;
20621;SDS011;10470;42.670;23.354;2022-10-16T08:05:59;12.50;;;8.80;;
20621;SDS011;10470;42.670;23.354;2022-10-16T08:08:26;14.40;;;8.93;;
20621;SDS011;10470;42.670;23.354;2022-10-16T08:10:51;11.90;;;8.00;;
20621;SDS011;10470;42.670;23.354;2022-10-16T08:13:17;13.57;;;7.90;;
20621;SDS011;10470;42.670;23.354;2022-10-16T08:15:43;12.03;;;7.30;;
20621;SDS011;10470;42.670;23.354;2022-10-16T08:18:10;9.77;;;7.40;;
20621;SDS011;10470;42.670;23.354;2022-10-16T08:20:36;10.23;;;7.60;;
20621;SDS011;10470;42.670;23.354;2022-10-16T08:23:02;10.53;;;7.60;;
20621;SDS011;10470;42.670;23.354;2022-10-16T08:25:28;15.60;;;8.63;;
20621;SDS011;10470;42.670;23.354;2022-10-16T08:27:53;10.07;;;7.47;;
20621;SDS011;10470;42.670;23.354;2022-10-16T08:30:20;24.10;;;9.80;;
20621;SDS011;10470;42.670;23.354;2022-10-16T08:32:47;11.27;;;6.90;;
20621;SDS011;10470;42.670;23.354;2022-10-16T08:35:13;9.07;;;6.87;;
20621;SDS011;10470;42.670;23.354;2022-10-16T08:37:40;11.90;;;7.43;;
20621;SDS011;10470;42.670;23.354;2022-10-16T08:40:06;10.00;;;7.00;;
20621;SDS011;10470;42.670;23.354;2022-10-16T08:42:51;8.97;;;6.30;;
20621;SDS011;10470;42.670;23.354;2022-10-16T08:50:51;10.90;;;6.10;;
20621;SDS011;10470;42.670;23.354;2022-10-16T08:53:20;8.33;;;5.43;;
20621;SDS011;10470;42.670;23.354;2022-10-16T08:55:55;8.90;;;5.90;;
20621;SDS011;10470;42.670;23.354;2022-10-16T08:58:26;5.63;;;4.77;;
20621;SDS011;10470;42.670;23.354;2022-10-16T09:00:54;6.33;;;4.30;;
20621;SDS011;10470;42.670;23.354;2022-10-16T09:20:19;6.00;;;4.60;;
20621;SDS011;10470;42.670;23.354;2022-10-16T09:23:36;5.60;;;3.97;;
20621;SDS011;10470;42.670;23.354;2022-10-16T09:25:52;7.20;;;4.40;;
20621;SDS011;10470;42.670;23.354;2022-10-16T09:28:19;5.67;;;4.00;;
20621;SDS011;10470;42.670;23.354;2022-10-16T09:30:45;4.90;;;3.90;;
20621;SDS011;10470;42.670;23.354;2022-10-16T09:33:12;4.33;;;3.50;;
20621;SDS011;10470;42.670;23.354;2022-10-16T09:35:39;4.43;;;3.80;;
20621;SDS011;10470;42.670;23.354;2022-10-16T09:38:05;7.43;;;4.60;;
20621;SDS011;10470;42.670;23.354;2022-10-16T09:40:33;5.07;;;3.70;;
20621;SDS011;10470;42.670;23.354;2022-10-16T09:45:28;4.93;;;4.00;;
20621;SDS011;10470;42.670;23.354;2022-10-16T09:47:54;5.53;;;4.20;;
20621;SDS011;10470;42.670;23.354;2022-10-16T09:50:28;4.10;;;3.70;;
20621;SDS011;10470;42.670;23.354;2022-10-16T09:53:13;4.60;;;3.40;;
20621;SDS011;10470;42.670;23.354;2022-10-16T09:55:52;4.80;;;3.47;;
20621;SDS011;10470;42.670;23.354;2022-10-16T09:58:22;4.20;;;3.50;;
20621;SDS011;10470;42.670;23.354;2022-10-16T10:00:50;5.93;;;3.33;;
20621;SDS011;10470;42.670;23.354;2022-10-16T10:03:40;5.27;;;3.80;;
20621;SDS011;10470;42.670;23.354;2022-10-16T10:09:14;4.73;;;3.60;;
20621;SDS011;10470;42.670;23.354;2022-10-16T10:11:52;6.70;;;3.77;;
20621;SDS011;10470;42.670;23.354;2022-10-16T10:16:50;5.00;;;3.60;;
20621;SDS011;10470;42.670;23.354;2022-10-16T10:19:47;4.97;;;3.53;;
20621;SDS011;10470;42.670;23.354;2022-10-16T10:24:55;3.83;;;3.10;;
20621;SDS011;10470;42.670;23.354;2022-10-16T10:44:07;5.23;;;3.27;;
20621;SDS011;10470;42.670;23.354;2022-10-16T10:46:35;3.03;;;2.70;;
20621;SDS011;10470;42.670;23.354;2022-10-16T10:49:11;3.93;;;2.90;;
20621;SDS011;10470;42.670;23.354;2022-10-16T10:54:22;3.10;;;2.73;;
20621;SDS011;10470;42.670;23.354;2022-10-16T10:56:56;5.50;;;2.77;;
20621;SDS011;10470;42.670;23.354;2022-10-16T10:59:30;3.33;;;2.63;;
20621;SDS011;10470;42.670;23.354;2022-10-16T11:08:00;5.07;;;4.30;;
20621;SDS011;10470;42.670;23.354;2022-10-16T11:16:00;2.73;;;2.53;;
20621;SDS011;10470;42.670;23.354;2022-10-16T11:18:46;4.00;;;2.97;;
20621;SDS011;10470;42.670;23.354;2022-10-16T11:21:19;2.43;;;2.23;;
20621;SDS011;10470;42.670;23.354;2022-10-16T11:23:52;3.67;;;2.80;;
20621;SDS011;10470;42.670;23.354;2022-10-16T11:26:26;4.33;;;3.00;;
20621;SDS011;10470;42.670;23.354;2022-10-16T11:28:56;3.30;;;2.73;;
20621;SDS011;10470;42.670;23.354;2022-10-16T11:34:44;3.10;;;2.80;;
20621;SDS011;10470;42.670;23.354;2022-10-16T11:39:42;3.90;;;2.70;;
20621;SDS011;10470;42.670;23.354;2022-10-16T11:42:13;3.30;;;3.00;;
20621;SDS011;10470;42.670;23.354;2022-10-16T11:44:46;2.97;;;2.77;;
20621;SDS011;10470;42.670;23.354;2022-10-16T11:50:36;3.77;;;2.97;;
20621;SDS011;10470;42.670;23.354;2022-10-16T11:56:08;2.33;;;2.13;;
20621;SDS011;10470;42.670;23.354;2022-10-16T11:58:45;2.57;;;2.30;;
20621;SDS011;10470;42.670;23.354;2022-10-16T12:01:26;3.37;;;2.73;;
20621;SDS011;10470;42.670;23.354;2022-10-16T12:08:52;2.97;;;2.40;;
20621;SDS011;10470;42.670;23.354;2022-10-16T12:11:24;3.07;;;2.57;;
20621;SDS011;10470;42.670;23.354;2022-10-16T12:14:05;3.23;;;2.33;;
20621;SDS011;10470;42.670;23.354;2022-10-16T12:16:52;4.13;;;2.80;;
20621;SDS011;10470;42.670;23.354;2022-10-16T12:19:18;3.17;;;2.23;;
20621;SDS011;10470;42.670;23.354;2022-10-16T12:21:45;4.17;;;3.17;;
20621;SDS011;10470;42.670;23.354;2022-10-16T12:27:20;3.20;;;2.40;;
20621;SDS011;10470;42.670;23.354;2022-10-16T12:29:58;2.67;;;2.47;;
20621;SDS011;10470;42.670;23.354;2022-10-16T12:32:30;4.23;;;2.77;;
20621;SDS011;10470;42.670;23.354;2022-10-16T12:34:58;2.90;;;2.50;;
20621;SDS011;10470;42.670;23.354;2022-10-16T12:37:35;3.40;;;2.30;;
20621;SDS011;10470;42.670;23.354;2022-10-16T12:40:12;4.03;;;2.50;;
20621;SDS011;10470;42.670;23.354;2022-10-16T12:42:41;2.83;;;2.63;;
20621;SDS011;10470;42.670;23.354;2022-10-16T12:45:24;3.87;;;3.23;;
20621;SDS011;10470;42.670;23.354;2022-10-16T12:47:53;4.20;;;2.70;;
20621;SDS011;10470;42.670;23.354;2022-10-16T12:52:53;4.13;;;3.67;;
20621;SDS011;10470;42.670;23.354;2022-10-16T12:55:20;3.13;;;2.87;;
20621;SDS011;10470;42.670;23.354;2022-10-16T13:06:21;4.53;;;2.73;;
20621;SDS011;10470;42.670;23.354;2022-10-16T13:09:04;2.97;;;2.40;;
20621;SDS011;10470;42.670;23.354;2022-10-16T13:17:42;2.80;;;2.60;;
20621;SDS011;10470;42.670;23.354;2022-10-16T13:28:31;2.57;;;2.17;;
20621;SDS011;10470;42.670;23.354;2022-10-16T13:30:58;3.37;;;2.50;;
20621;SDS011;10470;42.670;23.354;2022-10-16T13:33:39;2.43;;;2.10;;
20621;SDS011;10470;42.670;23.354;2022-10-16T13:36:23;3.80;;;2.67;;
20621;SDS011;10470;42.670;23.354;2022-10-16T13:41:37;4.53;;;3.80;;
20621;SDS011;10470;42.670;23.354;2022-10-16T13:44:03;3.77;;;2.73;;
20621;SDS011;10470;42.670;23.354;2022-10-16T13:46:30;4.03;;;2.97;;
20621;SDS011;10470;42.670;23.354;2022-10-16T13:49:03;4.90;;;3.20;;
20621;SDS011;10470;42.670;23.354;2022-10-16T13:51:38;3.77;;;3.00;;
20621;SDS011;10470;42.670;23.354;2022-10-16T13:54:04;2.93;;;2.57;;
20621;SDS011;10470;42.670;23.354;2022-10-16T13:56:30;2.50;;;2.30;;
20621;SDS011;10470;42.670;23.354;2022-10-16T13:59:05;2.70;;;2.10;;
20621;SDS011;10470;42.670;23.354;2022-10-16T14:01:46;4.47;;;2.77;;
20621;SDS011;10470;42.670;23.354;2022-10-16T14:04:12;5.17;;;2.83;;
20621;SDS011;10470;42.670;23.354;2022-10-16T14:06:43;2.70;;;2.50;;
20621;SDS011;10470;42.670;23.354;2022-10-16T14:09:26;3.77;;;2.60;;
20621;SDS011;10470;42.670;23.354;2022-10-16T14:12:01;3.27;;;2.97;;
20621;SDS011;10470;42.670;23.354;2022-10-16T14:14:34;4.00;;;2.87;;
20621;SDS011;10470;42.670;23.354;2022-10-16T14:17:06;2.50;;;2.20;;
20621;SDS011;10470;42.670;23.354;2022-10-16T14:19:38;2.90;;;2.60;;
20621;SDS011;10470;42.670;23.354;2022-10-16T14:22:20;4.07;;;2.50;;
20621;SDS011;10470;42.670;23.354;2022-10-16T14:24:52;3.30;;;2.37;;
20621;SDS011;10470;42.670;23.354;2022-10-16T14:27:36;2.57;;;2.37;;
20621;SDS011;10470;42.670;23.354;2022-10-16T14:30:21;5.23;;;2.43;;
20621;SDS011;10470;42.670;23.354;2022-10-16T14:32:57;3.63;;;2.40;;
20621;SDS011;10470;42.670;23.354;2022-10-16T14:35:32;5.13;;;2.70;;
20621;SDS011;10470;42.670;23.354;2022-10-16T14:38:00;3.87;;;2.40;;
20621;SDS011;10470;42.670;23.354;2022-10-16T14:40:34;4.20;;;2.70;;
20621;SDS011;10470;42.670;23.354;2022-10-16T14:43:02;4.30;;;2.50;;
20621;SDS011;10470;42.670;23.354;2022-10-16T14:45:32;2.87;;;2.67;;
20621;SDS011;10470;42.670;23.354;2022-10-16T14:48:01;4.30;;;2.70;;
20621;SDS011;10470;42.670;23.354;2022-10-16T14:50:31;3.83;;;2.70;;
20621;SDS011;10470;42.670;23.354;2022-10-16T14:52:57;3.33;;;2.70;;
20621;SDS011;10470;42.670;23.354;2022-10-16T14:55:23;2.80;;;2.60;;
20621;SDS011;10470;42.670;23.354;2022-10-16T14:57:50;3.90;;;3.00;;
20621;SDS011;10470;42.670;23.354;2022-10-16T15:02:44;3.30;;;2.80;;
20621;SDS011;10470;42.670;23.354;2022-10-16T15:05:12;3.80;;;2.90;;
20621;SDS011;10470;42.670;23.354;2022-10-16T15:07:40;4.17;;;3.00;;
20621;SDS011;10470;42.670;23.354;2022-10-16T15:10:06;3.70;;;2.90;;
20621;SDS011;10470;42.670;23.354;2022-10-16T15:12:32;3.30;;;3.00;;
20621;SDS011;10470;42.670;23.354;2022-10-16T15:14:58;3.17;;;2.80;;
20621;SDS011;10470;42.670;23.354;2022-10-16T15:17:23;4.43;;;3.13;;
20621;SDS011;10470;42.670;23.354;2022-10-16T15:19:49;4.40;;;2.90;;
20621;SDS011;10470;42.670;23.354;2022-10-16T15:22:16;6.17;;;2.73;;
20621;SDS011;10470;42.670;23.354;2022-10-16T15:24:42;4.53;;;3.17;;
20621;SDS011;10470;42.670;23.354;2022-10-16T15:27:07;3.33;;;2.87;;
20621;SDS011;10470;42.670;23.354;2022-10-16T15:29:33;4.63;;;3.17;;
20621;SDS011;10470;42.670;23.354;2022-10-16T15:31:58;4.67;;;3.40;;
20621;SDS011;10470;42.670;23.354;2022-10-16T15:34:24;4.00;;;3.17;;
20621;SDS011;10470;42.670;23.354;2022-10-16T15:36:49;4.93;;;3.50;;
20621;SDS011;10470;42.670;23.354;2022-10-16T15:39:16;4.57;;;3.77;;
20621;SDS011;10470;42.670;23.354;2022-10-16T15:41:44;4.77;;;3.50;;
20621;SDS011;10470;42.670;23.354;2022-10-16T15:44:19;5.80;;;3.80;;
20621;SDS011;10470;42.670;23.354;2022-10-16T15:46:46;6.90;;;4.60;;
20621;SDS011;10470;42.670;23.354;2022-10-16T15:49:12;5.13;;;4.20;;
20621;SDS011;10470;42.670;23.354;2022-10-16T15:51:38;7.33;;;4.13;;
20621;SDS011;10470;42.670;23.354;2022-10-16T15:54:05;6.03;;;4.40;;
20621;SDS011;10470;42.670;23.354;2022-10-16T15:56:31;6.73;;;5.00;;
20621;SDS011;10470;42.670;23.354;2022-10-16T15:58:58;5.80;;;4.40;;
20621;SDS011;10470;42.670;23.354;2022-10-16T16:01:27;5.63;;;4.23;;
20621;SDS011;10470;42.670;23.354;2022-10-16T16:03:54;7.17;;;4.47;;
20621;SDS011;10470;42.670;23.354;2022-10-16T16:06:21;8.17;;;5.40;;
20621;SDS011;10470;42.670;23.354;2022-10-16T16:08:49;9.07;;;5.30;;
20621;SDS011;10470;42.670;23.354;2022-10-16T16:11:15;5.87;;;4.37;;
20621;SDS011;10470;42.670;23.354;2022-10-16T16:13:42;8.80;;;4.70;;
20621;SDS011;10470;42.670;23.354;2022-10-16T16:16:08;6.90;;;4.80;;
20621;SDS011;10470;42.670;23.354;2022-10-16T16:18:39;11.07;;;5.63;;
20621;SDS011;10470;42.670;23.354;2022-10-16T16:21:05;10.40;;;6.07;;
20621;SDS011;10470;42.670;23.354;2022-10-16T16:23:31;11.67;;;5.00;;
20621;SDS011;10470;42.670;23.354;2022-10-16T16:26:04;7.63;;;5.20;;
20621;SDS011;10470;42.670;23.354;2022-10-16T16:28:41;10.47;;;5.07;;
20621;SDS011;10470;42.670;23.354;2022-10-16T16:31:08;10.73;;;5.50;;
20621;SDS011;10470;42.670;23.354;2022-10-16T16:33:34;8.07;;;5.37;;
20621;SDS011;10470;42.670;23.354;2022-10-16T16:36:03;7.93;;;5.00;;
20621;SDS011;10470;42.670;23.354;2022-10-16T16:38:31;11.63;;;6.50;;
20621;SDS011;10470;42.670;23.354;2022-10-16T16:40:57;11.73;;;6.80;;
20621;SDS011;10470;42.670;23.354;2022-10-16T16:43:26;13.07;;;8.30;;